Time;durP1;ratioP1;P1;durP2;ratioP2;P2;SDS_P1;SDS_P2;PMS_P1;PMS_P2;Temp;Humidity;BMP_temperature;BMP_pressure;BME280_temperature;BME280_humidity;BME280_pressure;Samples;Min_cycle;Max_cycle;Signal;HPM_P1;HPM_P2
2024/04/05 00:14:21;;;;;;;;;;;11.50;43.10;;;;;;5062316;28;19959;-79
2024/04/05 00:20:29;;;;;;;;;;;11.60;43.30;;;;;;5055329;28;19920;-77
2024/04/05 00:22:59;;;;;;;;;;;11.70;43.60;;;;;;5054397;28;19962;-77
2024/04/05 00:25:41;;;;;;;;;;;11.80;43.50;;;;;;5050578;28;20403;-78
2024/04/05 00:28:07;;;;;;;;;;;11.80;43.50;;;;;;5048151;28;19920;-76
2024/04/05 00:33:47;;;;;;;;;;;11.80;47.60;;;;;;5043206;28;20383;-76
2024/04/05 00:48:24;;;;;;;;;;;11.90;40.40;;;;;;5053324;28;19954;-79
2024/04/05 00:51:11;;;;;;;;;;;12.00;43.90;;;;;;5041838;28;19920;-77
2024/04/05 00:53:47;;;;;;;;;;;12.00;40.50;;;;;;5039487;28;19913;-77
2024/04/05 00:56:35;;;;;;;;;;;12.00;40.50;;;;;;5054430;28;19908;-77
2024/04/05 00:59:23;;;;;;;;;;;12.00;44.10;;;;;;5053783;28;20008;-76
2024/04/05 01:01:53;;;;;;;;;;;12.10;43.80;;;;;;5054571;28;19990;-77
2024/04/05 01:04:23;;;;;;;;;;;12.10;40.70;;;;;;5068503;28;19909;-78
2024/04/05 01:06:49;;;;;;;;;;;12.20;40.60;;;;;;5042689;28;19948;-77
2024/04/05 01:09:14;;;;;;;;;;;12.20;44.10;;;;;;5063459;28;20413;-77
2024/04/05 01:11:40;;;;;;;;;;;12.20;44.10;;;;;;5053907;28;19961;-77
2024/04/05 01:14:06;;;;;;;;;;;12.20;40.60;;;;;;5053611;28;19995;-77
2024/04/05 01:16:31;;;;;;;;;;;12.20;44.20;;;;;;5053069;28;19917;-77
2024/04/05 01:18:57;;;;;;;;;;;12.30;40.80;;;;;;5053313;28;19927;-77
2024/04/05 01:21:24;;;;;;;;;;;12.30;44.20;;;;;;5054987;28;20015;-79
2024/04/05 01:24:05;;;;;;;;;;;12.20;40.60;;;;;;5052936;28;19975;-79
2024/04/05 01:41:46;;;;;;;;;;;12.30;43.90;;;;;;5067207;28;19920;-79
2024/04/05 01:44:47;;;;;;;;;;;12.30;44.00;;;;;;5065155;28;20272;-80
2024/04/05 01:50:17;;;;;;;;;;;12.30;44.00;;;;;;5061580;28;20008;-77
2024/04/05 01:53:05;;;;;;;;;;;12.30;43.90;;;;;;5071154;28;19948;-76
2024/04/05 01:55:41;;;;;;;;;;;12.30;43.90;;;;;;5052869;28;20155;-76
2024/04/05 01:58:08;;;;;;;;;;;12.20;40.60;;;;;;5053272;28;19920;-76
2024/04/05 02:00:53;;;;;;;;;;;12.20;43.90;;;;;;5049922;28;19912;-76
2024/04/05 02:03:36;;;;;;;;;;;12.20;40.60;;;;;;5053288;28;19924;-77
2024/04/05 02:09:30;;;;;;;;;;;12.10;43.80;;;;;;5053137;28;19916;-79
2024/04/05 02:11:59;;;;;;;;;;;12.00;43.70;;;;;;5062087;28;19912;-79
2024/04/05 02:14:25;;;;;;;;;;;12.10;45.80;;;;;;5073299;28;19913;-80
2024/04/05 02:16:54;;;;;;;;;;;12.00;47.00;;;;;;5073322;28;19916;-79
2024/04/05 02:22:35;;;;;;;;;;;12.00;52.30;;;;;;5033856;28;19919;-79
2024/04/05 02:25:05;;;;;;;;;;;12.10;43.90;;;;;;5034401;28;20004;-79
2024/04/05 02:27:59;;;;;;;;;;;12.00;40.50;;;;;;5053063;28;19908;-79
2024/04/05 02:43:05;;;;;;;;;;;11.70;43.60;;;;;;5057882;28;19935;-80
2024/04/05 02:48:33;;;;;;;;;;;11.60;43.40;;;;;;5035554;28;20371;-79
2024/04/05 02:51:18;;;;;;;;;;;11.50;47.70;;;;;;5061141;28;20007;-77
2024/04/05 02:53:44;;;;;;;;;;;11.50;55.60;;;;;;5061707;28;19908;-77
2024/04/05 02:56:10;;;;;;;;;;;11.50;53.10;;;;;;5049677;28;19955;-76
2024/04/05 02:58:47;;;;;;;;;;;11.50;58.60;;;;;;5052962;28;19956;-77
2024/04/05 03:04:15;;;;;;;;;;;11.50;72.40;;;;;;5052754;28;20001;-77
2024/04/05 03:16:02;;;;;;;;;;;11.30;81.70;;;;;;5052508;28;19975;-79
2024/04/05 03:28:05;;;;;;;;;;;11.40;85.40;;;;;;5036150;28;19960;-79
2024/04/05 03:33:33;;;;;;;;;;;11.40;91.10;;;;;;5076021;28;20329;-79
2024/04/05 03:39:02;;;;;;;;;;;11.50;93.30;;;;;;5067130;28;19916;-79
2024/04/05 03:47:42;;;;;;;;;;;11.70;91.20;;;;;;5055518;28;19916;-79
2024/04/05 03:50:29;;;;;;;;;;;11.80;88.20;;;;;;5069407;28;19962;-79
2024/04/05 03:52:59;;;;;;;;;;;11.80;84.90;;;;;;5057688;28;20023;-76
2024/04/05 03:58:27;;;;;;;;;;;11.90;82.10;;;;;;5035503;28;20442;-76
2024/04/05 04:01:17;;;;;;;;;;;11.90;78.40;;;;;;5054243;28;19909;-76
2024/04/05 04:04:08;;;;;;;;;;;11.90;76.90;;;;;;5055481;28;19923;-76
2024/04/05 04:06:34;;;;;;;;;;;11.90;78.90;;;;;;5045397;28;19959;-77
2024/04/05 04:09:29;;;;;;;;;;;11.90;80.60;;;;;;5050237;28;19913;-77
2024/04/05 04:14:57;;;;;;;;;;;12.00;80.70;;;;;;5054838;28;19927;-77
2024/04/05 04:17:30;;;;;;;;;;;12.00;70.60;;;;;;5055055;28;19913;-77
2024/04/05 04:20:12;;;;;;;;;;;12.00;73.80;;;;;;5055378;28;19984;-77
2024/04/05 04:31:47;;;;;;;;;;;12.10;62.20;;;;;;5044544;28;19967;-79
2024/04/05 04:34:17;;;;;;;;;;;13.00;63.30;;;;;;5060961;28;19999;-79
2024/04/05 04:36:59;;;;;;;;;;;12.10;53.60;;;;;;5056162;28;19916;-78
2024/04/05 04:42:41;;;;;;;;;;;12.20;40.60;;;;;;5054255;28;20335;-79
2024/04/05 04:51:13;;;;;;;;;;;12.30;43.90;;;;;;5047164;28;19919;-79
2024/04/05 04:53:39;;;;;;;;;;;12.30;40.70;;;;;;5053861;28;19909;-77
2024/04/05 04:56:30;;;;;;;;;;;12.30;44.00;;;;;;5054519;28;19917;-78
2024/04/05 04:58:57;;;;;;;;;;;12.40;40.80;;;;;;5064935;28;19920;-77
2024/04/05 05:01:53;;;;;;;;;;;12.40;40.90;;;;;;5064780;28;20265;-79
2024/04/05 05:04:35;;;;;;;;;;;12.40;40.80;;;;;;5060004;28;19915;-81
2024/04/05 05:07:01;;;;;;;;;;;12.40;44.10;;;;;;5054150;28;19920;-78
2024/04/05 05:09:29;;;;;;;;;;;12.40;44.20;;;;;;5057120;28;19909;-79
2024/04/05 05:14:58;;;;;;;;;;;12.40;44.30;;;;;;5053027;28;19927;-79
2024/04/05 05:17:29;;;;;;;;;;;13.90;45.30;;;;;;5050576;28;19913;-79
2024/04/05 05:19:55;;;;;;;;;;;12.50;40.90;;;;;;5053425;28;19948;-79
2024/04/05 05:28:29;;;;;;;;;;;12.60;44.10;;;;;;5056420;28;19915;-80
2024/04/05 05:30:55;;;;;;;;;;;12.70;41.10;;;;;;5053215;28;19908;-80
2024/04/05 05:36:35;;;;;;;;;;;12.70;44.30;;;;;;5042799;28;19919;-80
2024/04/05 05:39:01;;;;;;;;;;;12.80;41.20;;;;;;5053355;28;19908;-76
2024/04/05 05:41:27;;;;;;;;;;;12.80;41.20;;;;;;5053251;28;19917;-77
2024/04/05 05:44:23;;;;;;;;;;;12.80;44.40;;;;;;5052955;28;19909;-77
2024/04/05 05:46:49;;;;;;;;;;;12.90;44.70;;;;;;5060327;28;19966;-77
2024/04/05 05:49:14;;;;;;;;;;;12.90;44.30;;;;;;5057817;28;19963;-77
2024/04/05 05:51:53;;;;;;;;;;;12.90;33.00;;;;;;5045357;28;19913;-77
2024/04/05 05:54:23;;;;;;;;;;;12.90;35.80;;;;;;5049819;28;19909;-78
2024/04/05 05:59:51;;;;;;;;;;;12.90;31.90;;;;;;5033244;28;20419;-79
2024/04/05 06:02:29;;;;;;;;;;;12.90;28.80;;;;;;5048143;28;19916;-78
2024/04/05 06:11:17;;;;;;;;;;;13.00;28.50;;;;;;5033060;28;19917;-77
2024/04/05 06:13:47;;;;;;;;;;;13.00;29.30;;;;;;5044805;28;19917;-77
2024/04/05 06:16:13;;;;;;;;;;;13.10;33.00;;;;;;5042960;28;19916;-76
2024/04/05 06:18:45;;;;;;;;;;;13.10;33.40;;;;;;5057283;28;19920;-76
2024/04/05 06:21:47;;;;;;;;;;;13.20;34.00;;;;;;5058253;28;19913;-76
2024/04/05 06:27:16;;;;;;;;;;;13.40;34.00;;;;;;5032860;28;19916;-78
2024/04/05 06:36:00;;;;;;;;;;;13.70;29.00;;;;;;5047927;28;19967;-79
2024/04/05 06:41:28;;;;;;;;;;;14.10;22.80;;;;;;5050790;28;19966;-78
2024/04/05 06:44:00;;;;;;;;;;;14.30;22.40;;;;;;5052468;28;20007;-79
2024/04/05 06:46:41;;;;;;;;;;;14.30;24.90;;;;;;5050197;28;19912;-78
2024/04/05 06:49:07;;;;;;;;;;;14.40;23.70;;;;;;5052742;28;19915;-78
2024/04/05 06:54:42;;;;;;;;;;;14.90;20.60;;;;;;5052560;28;19916;-76
2024/04/05 06:57:09;;;;;;;;;;;15.20;19.00;;;;;;5064588;28;19995;-76
2024/04/05 06:59:47;;;;;;;;;;;15.40;18.20;;;;;;5056180;28;19920;-76
2024/04/05 07:02:23;;;;;;;;;;;15.70;1.00;;;;;;5053275;28;20291;-76
2024/04/05 07:04:49;;;;;;;;;;;15.70;1.00;;;;;;5058612;28;19964;-76
2024/04/05 07:07:36;;;;;;;;;;;15.80;1.70;;;;;;5059242;28;19913;-76
2024/04/05 07:10:05;;;;;;;;;;;16.00;1.00;;;;;;5059111;28;20441;-76
2024/04/05 07:12:43;;;;;;;;;;;16.20;1.00;;;;;;5058124;28;19915;-76
2024/04/05 07:15:09;;;;;;;;;;;16.30;1.00;;;;;;5061101;28;19955;-76
2024/04/05 07:17:35;;;;;;;;;;;16.50;1.00;;;;;;5055766;28;19913;-76
2024/04/05 07:20:20;;;;;;;;;;;16.80;1.00;;;;;;5055720;28;19913;-76
2024/04/05 07:22:54;;;;;;;;;;;16.80;1.00;;;;;;5051158;28;19928;-76
2024/04/05 07:25:20;;;;;;;;;;;16.90;1.00;;;;;;5041631;28;20084;-76
2024/04/05 07:27:49;;;;;;;;;;;17.10;1.00;;;;;;5058379;28;19951;-76
2024/04/05 07:30:15;;;;;;;;;;;17.20;1.00;;;;;;5060782;28;19909;-76
2024/04/05 07:33:17;;;;;;;;;;;17.50;1.00;;;;;;5059520;28;19913;-75
2024/04/05 07:36:05;;;;;;;;;;;17.60;1.00;;;;;;5052446;28;19913;-76
2024/04/05 07:38:42;;;;;;;;;;;17.70;1.00;;;;;;5068439;28;19912;-76
2024/04/05 07:41:11;;;;;;;;;;;17.70;1.00;;;;;;5058254;28;19971;-76
2024/04/05 07:43:37;;;;;;;;;;;17.60;1.00;;;;;;5055294;28;20376;-76
2024/04/05 07:49:11;;;;;;;;;;;17.60;1.00;;;;;;5058631;28;19924;-76
2024/04/05 07:51:37;;;;;;;;;;;17.60;1.00;;;;;;5026610;28;20396;-75
2024/04/05 07:54:03;;;;;;;;;;;17.70;1.00;;;;;;5051479;28;19909;-75
2024/04/05 07:56:29;;;;;;;;;;;17.80;1.00;;;;;;5047083;28;19936;-76
2024/04/05 07:58:59;;;;;;;;;;;17.90;1.00;;;;;;5053032;28;19909;-76
2024/04/05 08:01:25;;;;;;;;;;;18.10;1.00;;;;;;5073000;28;19958;-76
2024/04/05 08:03:53;;;;;;;;;;;18.40;1.00;;;;;;5058037;28;19913;-75
2024/04/05 08:06:19;;;;;;;;;;;18.50;1.00;;;;;;5045495;28;20372;-75
2024/04/05 08:08:47;;;;;;;;;;;18.50;1.00;;;;;;5048688;28;19909;-75
2024/04/05 08:11:13;;;;;;;;;;;18.50;1.00;;;;;;5045823;28;19963;-76
2024/04/05 08:13:41;;;;;;;;;;;18.80;1.00;;;;;;5055249;28;19956;-76
2024/04/05 08:16:11;;;;;;;;;;;18.80;1.00;;;;;;5051591;28;20003;-75
2024/04/05 08:18:41;;;;;;;;;;;18.80;1.00;;;;;;5054820;28;19960;-76
2024/04/05 08:21:07;;;;;;;;;;;18.90;1.00;;;;;;5055340;28;19908;-76
2024/04/05 08:23:32;;;;;;;;;;;18.90;1.00;;;;;;5055317;28;19912;-75
2024/04/05 08:25:59;;;;;;;;;;;18.90;1.00;;;;;;5044173;28;19964;-75
2024/04/05 08:28:41;;;;;;;;;;;19.10;1.00;;;;;;5053035;28;20008;-75
2024/04/05 08:31:08;;;;;;;;;;;19.40;1.00;;;;;;5041473;28;19916;-76
2024/04/05 08:33:33;;;;;;;;;;;19.40;1.00;;;;;;5049233;28;19956;-76
2024/04/05 08:35:59;;;;;;;;;;;19.40;1.00;;;;;;5050751;28;20283;-75
2024/04/05 08:38:25;;;;;;;;;;;19.00;1.00;;;;;;5055861;28;19913;-75
2024/04/05 08:46:56;;;;;;;;;;;19.00;1.00;;;;;;5047477;28;20387;-78
2024/04/05 08:55:28;;;;;;;;;;;19.20;1.00;;;;;;5054919;28;20398;-75
2024/04/05 08:57:55;;;;;;;;;;;19.30;1.00;;;;;;5067145;28;19995;-75
2024/04/05 09:00:30;;;;;;;;;;;19.50;1.00;;;;;;5053710;28;19944;-76
2024/04/05 09:02:58;;;;;;;;;;;19.60;1.00;;;;;;5061083;28;20340;-75
2024/04/05 09:05:24;;;;;;;;;;;19.70;1.00;;;;;;5048912;28;20427;-75
2024/04/05 09:07:50;;;;;;;;;;;19.80;1.00;;;;;;5065785;28;19917;-75
2024/04/05 09:13:20;;;;;;;;;;;20.10;1.00;;;;;;5054359;28;20387;-81
2024/04/05 09:19:17;;;;;;;;;;;20.40;1.00;;;;;;5061796;28;20338;-81
2024/04/05 09:30:55;;;;;;;;;;;20.70;1.00;;;;;;5063580;28;19916;-82
2024/04/05 09:33:23;;;;;;;;;;;21.00;1.00;;;;;;5059271;28;19952;-81
2024/04/05 09:35:54;;;;;;;;;;;21.10;1.00;;;;;;5053992;28;19963;-81
2024/04/05 09:38:24;;;;;;;;;;;21.20;1.00;;;;;;5042096;28;19921;-82
2024/04/05 09:41:14;;;;;;;;;;;21.50;1.00;;;;;;5059175;28;19913;-81
2024/04/05 09:44:05;;;;;;;;;;;21.60;1.00;;;;;;5049108;28;19917;-80
2024/04/05 09:49:53;;;;;;;;;;;21.40;1.00;;;;;;5050543;28;19920;-80
2024/04/05 09:55:28;;;;;;;;;;;21.70;1.00;;;;;;5045847;28;19916;-80
2024/04/05 09:57:55;;;;;;;;;;;21.70;1.00;;;;;;5054202;28;19909;-80
2024/04/05 10:00:36;;;;;;;;;;;21.70;1.00;;;;;;5052567;28;19936;-80
2024/04/05 10:12:12;;;;;;;;;;;21.80;1.00;;;;;;5052112;28;19916;-80
2024/04/05 10:14:39;;;;;;;;;;;21.80;1.00;;;;;;5041620;28;19924;-80
2024/04/05 10:20:41;;;;;;;;;;;21.80;1.00;;;;;;5063622;28;19939;-81
2024/04/05 10:23:29;;;;;;;;;;;21.70;1.00;;;;;;5052500;28;19924;-81
2024/04/05 10:26:00;;;;;;;;;;;22.00;1.00;;;;;;5029734;28;19915;-80
2024/04/05 10:28:29;;;;;;;;;;;22.10;1.00;;;;;;5057061;28;20007;-80
2024/04/05 10:30:55;;;;;;;;;;;22.10;1.00;;;;;;5043586;28;20503;-80
2024/04/05 10:33:21;;;;;;;;;;;22.50;1.00;;;;;;5062400;28;19996;-80
2024/04/05 10:35:48;;;;;;;;;;;22.50;1.00;;;;;;5061745;28;19919;-81
2024/04/05 10:38:29;;;;;;;;;;;22.60;1.00;;;;;;5053115;28;19917;-81
2024/04/05 10:40:58;;;;;;;;;;;22.60;1.00;;;;;;5037491;28;20012;-83
2024/04/05 10:43:25;;;;;;;;;;;22.50;1.00;;;;;;5048742;28;19917;-82
2024/04/05 10:45:51;;;;;;;;;;;22.60;1.00;;;;;;5035849;28;19936;-81
2024/04/05 10:48:35;;;;;;;;;;;22.40;1.00;;;;;;5064109;28;20481;-81
2024/04/05 11:06:30;;;;;;;;;;;22.20;1.00;;;;;;5053491;28;19916;-81
2024/04/05 11:08:56;;;;;;;;;;;22.30;1.00;;;;;;5055990;28;19916;-75
2024/04/05 11:11:21;;;;;;;;;;;22.50;1.00;;;;;;5062744;28;19913;-75
2024/04/05 11:14:11;;;;;;;;;;;22.40;1.00;;;;;;5056842;28;19913;-78
2024/04/05 11:17:14;;;;;;;;;;;22.40;1.00;;;;;;5060528;28;19916;-79
2024/04/05 11:19:39;;;;;;;;;;;22.60;1.00;;;;;;5004414;28;20346;-78
2024/04/05 11:22:05;;;;;;;;;;;22.40;1.00;;;;;;5003283;28;19918;-80
2024/04/05 11:24:36;;;;;;;;;;;22.30;1.00;;;;;;4996926;28;19910;-86
2024/04/05 11:27:01;;;;;;;;;;;22.40;1.00;;;;;;4987998;28;20396;-69
2024/04/05 11:29:27;;;;;;;;;;;22.50;1.00;;;;;;4993017;28;19914;-69
2024/04/05 11:31:57;;;;;;;;;;;22.50;1.00;;;;;;5003937;28;19941;-69
2024/04/05 11:34:22;;;;;;;;;;;22.10;1.00;;;;;;4995772;28;19968;-69
2024/04/05 11:36:48;;;;;;;;;;;22.20;1.00;;;;;;5011209;28;19952;-69
2024/04/05 11:39:14;;;;;;;;;;;22.10;1.00;;;;;;4992779;28;19961;-69
2024/04/05 11:41:40;;;;;;;;;;;22.10;1.00;;;;;;4992426;28;19968;-69
2024/04/05 11:44:06;;;;;;;;;;;21.80;1.00;;;;;;4997621;28;20010;-70
2024/04/05 11:46:31;;;;;;;;;;;21.70;1.00;;;;;;5001901;28;19999;-71
2024/04/05 11:48:57;;;;;;;;;;;21.70;1.00;;;;;;5001549;28;19925;-71
2024/04/05 11:51:22;;;;;;;;;;;21.40;1.00;;;;;;4995661;28;19914;-71
2024/04/05 11:53:48;;;;;;;;;;;21.40;1.00;;;;;;5028212;28;19917;-71
2024/04/05 11:56:14;;;;;;;;;;;21.50;1.00;;;;;;5054176;28;19932;-70
2024/04/05 11:58:39;;;;;;;;;;;21.20;1.00;;;;;;5059832;28;19916;-71
2024/04/05 12:01:05;;;;;;;;;;;21.20;1.00;;;;;;5060466;28;19934;-70
2024/04/05 12:03:31;;;;;;;;;;;21.70;1.00;;;;;;5054396;28;19929;-71
2024/04/05 12:05:56;;;;;;;;;;;21.80;1.00;;;;;;5054242;28;20337;-71
2024/04/05 12:08:22;;;;;;;;;;;21.90;1.00;;;;;;5055957;28;19920;-71
2024/04/05 12:10:47;;;;;;;;;;;21.90;1.00;;;;;;5043162;28;19974;-71
2024/04/05 12:13:35;;;;;;;;;;;22.20;1.00;;;;;;5047965;28;19924;-78
2024/04/05 12:16:01;;;;;;;;;;;22.40;1.00;;;;;;5043401;28;19924;-78
2024/04/05 12:18:27;;;;;;;;;;;22.60;1.00;;;;;;5052449;28;19970;-75
2024/04/05 12:20:52;;;;;;;;;;;23.10;1.00;;;;;;5057288;28;19916;-77
2024/04/05 12:23:29;;;;;;;;;;;23.10;1.00;;;;;;5057822;28;19921;-76
2024/04/05 12:26:08;;;;;;;;;;;23.20;1.00;;;;;;5054644;28;19912;-77
2024/04/05 12:34:47;;;;;;;;;;;23.30;1.00;;;;;;5058358;28;20292;-78
2024/04/05 12:37:53;;;;;;;;;;;23.20;1.00;;;;;;5054210;28;19963;-78
2024/04/05 12:43:22;;;;;;;;;;;22.70;1.00;;;;;;5060468;28;20401;-77
2024/04/05 12:46:23;;;;;;;;;;;23.00;1.00;;;;;;5052981;28;19944;-77
2024/04/05 12:48:59;;;;;;;;;;;23.00;1.00;;;;;;5054486;28;19962;-77
2024/04/05 12:51:29;;;;;;;;;;;22.90;1.00;;;;;;5055284;28;19909;-77
2024/04/05 12:54:23;;;;;;;;;;;22.80;1.00;;;;;;5040805;28;19916;-77
2024/04/05 12:57:19;;;;;;;;;;;22.60;1.00;;;;;;5062602;28;19944;-77
2024/04/05 12:59:53;;;;;;;;;;;22.50;1.00;;;;;;5037767;28;19932;-77
2024/04/05 13:08:29;;;;;;;;;;;22.10;1.00;;;;;;5054462;28;19916;-77
2024/04/05 13:11:00;;;;;;;;;;;21.90;1.00;;;;;;5043035;28;19916;-78
2024/04/05 13:13:33;;;;;;;;;;;21.90;1.00;;;;;;5044111;28;19921;-76
2024/04/05 13:16:00;;;;;;;;;;;21.80;1.00;;;;;;5057313;28;19921;-77
2024/04/05 13:18:47;;;;;;;;;;;21.80;1.00;;;;;;5034689;28;19917;-77
2024/04/05 13:21:17;;;;;;;;;;;21.80;1.00;;;;;;5037687;28;19963;-76
2024/04/05 13:23:45;;;;;;;;;;;21.70;1.00;;;;;;5044454;28;19920;-76
2024/04/05 13:26:12;;;;;;;;;;;21.70;1.00;;;;;;5064573;28;19909;-76
2024/04/05 13:31:41;;;;;;;;;;;21.90;1.00;;;;;;5054250;28;19936;-76
2024/04/05 13:34:17;;;;;;;;;;;21.90;1.00;;;;;;5041015;28;19909;-77
2024/04/05 13:37:17;;;;;;;;;;;21.60;1.00;;;;;;5044869;28;19919;-77
2024/04/05 13:39:48;;;;;;;;;;;21.50;1.00;;;;;;5042698;28;19909;-77
2024/04/05 13:42:14;;;;;;;;;;;21.50;1.00;;;;;;5040744;28;19913;-77
2024/04/05 13:47:47;;;;;;;;;;;21.40;1.00;;;;;;5045797;28;19970;-77
2024/04/05 13:50:35;;;;;;;;;;;21.30;1.00;;;;;;5050848;28;19909;-77
2024/04/05 13:53:12;;;;;;;;;;;21.20;1.00;;;;;;5052650;28;19919;-76
2024/04/05 13:55:37;;;;;;;;;;;21.20;1.00;;;;;;5054237;28;19962;-77
2024/04/05 13:58:05;;;;;;;;;;;21.00;1.00;;;;;;5053180;28;19947;-76
2024/04/05 14:01:05;;;;;;;;;;;21.10;1.00;;;;;;5039757;28;19959;-76
2024/04/05 14:03:59;;;;;;;;;;;20.90;1.00;;;;;;5048650;28;19920;-75
2024/04/05 14:06:30;;;;;;;;;;;20.90;1.00;;;;;;5052967;28;19909;-76
2024/04/05 14:08:56;;;;;;;;;;;21.10;1.00;;;;;;5053288;28;19913;-76
2024/04/05 14:11:24;;;;;;;;;;;21.10;1.00;;;;;;5039945;28;20400;-75
2024/04/05 14:14:19;;;;;;;;;;;21.20;1.00;;;;;;5053913;28;19912;-76
2024/04/05 14:17:17;;;;;;;;;;;21.50;1.00;;;;;;5039807;28;19916;-76
2024/04/05 14:23:11;;;;;;;;;;;21.60;1.00;;;;;;5041573;28;19919;-76
2024/04/05 14:26:05;;;;;;;;;;;21.90;1.00;;;;;;5059945;28;19909;-76
2024/04/05 14:28:36;;;;;;;;;;;21.90;1.00;;;;;;5043635;28;20008;-77
2024/04/05 14:31:08;;;;;;;;;;;22.00;1.00;;;;;;5039678;28;19913;-77
2024/04/05 14:33:37;;;;;;;;;;;22.00;1.00;;;;;;5052021;28;20027;-77
2024/04/05 14:36:06;;;;;;;;;;;21.70;1.00;;;;;;5047700;28;19952;-77
2024/04/05 14:38:36;;;;;;;;;;;21.40;1.00;;;;;;5033012;28;19909;-77
2024/04/05 14:41:35;;;;;;;;;;;21.40;1.00;;;;;;5046313;28;20396;-77
2024/04/05 14:44:24;;;;;;;;;;;21.20;1.00;;;;;;5063531;28;19922;-75
2024/04/05 14:47:18;;;;;;;;;;;21.20;1.00;;;;;;5059189;28;19951;-76
2024/04/05 14:49:44;;;;;;;;;;;21.20;1.00;;;;;;5042074;28;20285;-76
2024/04/05 14:52:09;;;;;;;;;;;21.20;1.00;;;;;;5046343;28;19909;-76
2024/04/05 14:54:35;;;;;;;;;;;21.00;1.00;;;;;;5043375;28;19909;-75
2024/04/05 14:57:12;;;;;;;;;;;20.90;1.00;;;;;;5057066;28;19919;-75
2024/04/05 14:59:42;;;;;;;;;;;21.00;1.00;;;;;;5059723;28;20015;-76
2024/04/05 15:05:12;;;;;;;;;;;21.10;1.00;;;;;;5053001;28;19971;-76
2024/04/05 15:07:42;;;;;;;;;;;21.00;1.00;;;;;;5059030;28;19963;-76
2024/04/05 15:10:08;;;;;;;;;;;20.90;1.00;;;;;;5048801;28;20344;-76
2024/04/05 15:12:33;;;;;;;;;;;20.80;1.00;;;;;;5044407;28;19963;-76
2024/04/05 15:14:59;;;;;;;;;;;20.70;1.00;;;;;;5061335;28;19949;-76
2024/04/05 15:17:31;;;;;;;;;;;20.90;1.00;;;;;;5061812;28;19956;-76
2024/04/05 15:23:02;;;;;;;;;;;20.60;1.00;;;;;;5053343;28;19967;-75
2024/04/05 15:25:30;;;;;;;;;;;20.60;1.00;;;;;;5059748;28;19947;-76
2024/04/05 15:31:17;;;;;;;;;;;20.30;1.00;;;;;;5054877;28;19928;-77
2024/04/05 15:36:50;;;;;;;;;;;20.30;1.00;;;;;;5040711;28;19919;-77
2024/04/05 15:39:41;;;;;;;;;;;20.10;1.00;;;;;;5051416;28;19913;-78
2024/04/05 15:42:30;;;;;;;;;;;20.00;1.00;;;;;;5055595;28;20348;-79
2024/04/05 15:45:00;;;;;;;;;;;20.00;1.00;;;;;;5044728;28;20332;-78
2024/04/05 15:47:30;;;;;;;;;;;19.90;1.00;;;;;;5041147;28;19915;-77
2024/04/05 15:49:55;;;;;;;;;;;19.90;1.00;;;;;;5044417;28;19909;-81
2024/04/05 15:52:21;;;;;;;;;;;19.90;1.00;;;;;;5048861;28;19995;-76
2024/04/05 15:54:47;;;;;;;;;;;19.80;1.00;;;;;;5050189;28;19908;-76
2024/04/05 15:57:12;;;;;;;;;;;19.80;1.00;;;;;;5055628;28;19913;-76
2024/04/05 16:00:03;;;;;;;;;;;19.90;1.00;;;;;;5042773;28;19920;-76
2024/04/05 16:02:54;;;;;;;;;;;20.00;1.00;;;;;;5044975;28;19927;-76
2024/04/05 16:05:20;;;;;;;;;;;20.00;1.00;;;;;;5070533;28;20572;-75
2024/04/05 16:07:48;;;;;;;;;;;19.90;1.00;;;;;;5054365;28;19948;-76
2024/04/05 16:10:13;;;;;;;;;;;19.90;1.00;;;;;;5048565;28;19909;-75
2024/04/05 16:12:42;;;;;;;;;;;19.80;1.00;;;;;;5030257;28;19913;-75
2024/04/05 16:15:07;;;;;;;;;;;19.80;1.00;;;;;;5055012;28;19956;-75
2024/04/05 16:21:12;;;;;;;;;;;19.70;1.00;;;;;;5046041;28;20005;-78
2024/04/05 16:30:17;;;;;;;;;;;19.50;1.00;;;;;;5041337;28;19963;-77
2024/04/05 16:33:00;;;;;;;;;;;19.50;1.00;;;;;;5055128;28;19967;-76
2024/04/05 16:35:29;;;;;;;;;;;19.60;1.00;;;;;;5055886;28;20322;-77
2024/04/05 16:38:12;;;;;;;;;;;19.90;1.00;;;;;;5055157;28;19995;-77
2024/04/05 16:40:37;;;;;;;;;;;19.90;1.00;;;;;;5052891;28;19909;-77
2024/04/05 16:43:26;;;;;;;;;;;20.20;1.00;;;;;;5043105;28;19912;-77
2024/04/05 16:48:55;;;;;;;;;;;20.10;1.00;;;;;;5053865;28;19999;-77
2024/04/05 16:54:24;;;;;;;;;;;19.90;1.00;;;;;;5050452;28;20284;-77
2024/04/05 16:59:53;;;;;;;;;;;19.60;1.00;;;;;;5053191;28;20038;-77
2024/04/05 17:02:36;;;;;;;;;;;17.80;1.00;;;;;;5042320;28;20406;-76
2024/04/05 17:05:19;;;;;;;;;;;19.60;1.00;;;;;;5037145;28;19913;-76
2024/04/05 17:08:06;;;;;;;;;;;19.60;1.00;;;;;;5068683;28;20011;-76
2024/04/05 17:11:06;;;;;;;;;;;19.40;1.00;;;;;;5054043;28;19909;-75
2024/04/05 17:13:37;;;;;;;;;;;19.50;1.00;;;;;;5041019;28;19916;-75
2024/04/05 17:16:24;;;;;;;;;;;19.40;1.00;;;;;;5055791;28;19916;-75
2024/04/05 17:19:11;;;;;;;;;;;19.30;1.00;;;;;;5053989;28;19924;-75
2024/04/05 17:21:54;;;;;;;;;;;19.30;1.00;;;;;;5041093;28;19908;-75
2024/04/05 17:24:30;;;;;;;;;;;19.20;1.00;;;;;;5040725;28;20017;-76
2024/04/05 17:27:06;;;;;;;;;;;19.20;1.00;;;;;;5064414;28;19912;-76
2024/04/05 17:29:36;;;;;;;;;;;19.20;1.00;;;;;;5033682;28;19952;-76
2024/04/05 17:41:41;;;;;;;;;;;19.00;1.00;;;;;;5047226;28;19979;-77
2024/04/05 17:44:07;;;;;;;;;;;18.80;1.00;;;;;;5052579;28;19917;-76
2024/04/05 17:49:42;;;;;;;;;;;18.80;1.00;;;;;;5044283;28;20375;-77
2024/04/05 17:55:10;;;;;;;;;;;18.70;1.00;;;;;;5052152;28;19967;-76
2024/04/05 17:57:48;;;;;;;;;;;18.70;1.00;;;;;;5043620;28;19913;-77
2024/04/05 18:00:18;;;;;;;;;;;18.60;1.00;;;;;;5037560;28;19908;-77
2024/04/05 18:05:48;;;;;;;;;;;18.50;1.00;;;;;;5052492;28;19931;-77
2024/04/05 18:14:19;;;;;;;;;;;18.40;1.00;;;;;;5049198;28;19916;-77
2024/04/05 18:19:54;;;;;;;;;;;18.40;1.00;;;;;;5047645;28;19920;-77
2024/04/05 18:25:24;;;;;;;;;;;18.30;1.00;;;;;;5040516;28;19919;-77
2024/04/05 18:30:52;;;;;;;;;;;18.20;1.00;;;;;;5049529;28;20585;-77
2024/04/05 18:33:24;;;;;;;;;;;18.30;1.00;;;;;;5033330;28;19917;-77
2024/04/05 18:38:55;;;;;;;;;;;18.30;1.00;;;;;;5039436;28;19921;-76
2024/04/05 18:41:24;;;;;;;;;;;18.20;1.00;;;;;;5052963;28;19963;-77
2024/04/05 18:43:50;;;;;;;;;;;18.20;1.00;;;;;;5039455;28;19959;-76
2024/04/05 18:46:25;;;;;;;;;;;18.30;1.00;;;;;;5052778;28;20280;-77
2024/04/05 18:48:54;;;;;;;;;;;18.20;1.00;;;;;;5035286;28;19916;-76
2024/04/05 18:51:24;;;;;;;;;;;18.10;1.00;;;;;;5042068;28;19956;-76
2024/04/05 18:53:49;;;;;;;;;;;18.10;1.00;;;;;;5054987;28;19920;-76
2024/04/05 18:56:17;;;;;;;;;;;18.10;1.00;;;;;;5066294;28;19912;-76
2024/04/05 18:59:18;;;;;;;;;;;18.10;1.00;;;;;;5052629;28;20028;-76
2024/04/05 19:05:00;;;;;;;;;;;18.00;1.00;;;;;;5051100;28;19959;-76
2024/04/05 19:07:31;;;;;;;;;;;18.00;1.00;;;;;;5062001;28;19912;-76
2024/04/05 19:10:30;;;;;;;;;;;18.00;1.00;;;;;;5035233;28;19913;-76
2024/04/05 19:13:00;;;;;;;;;;;18.00;1.00;;;;;;5036603;28;20003;-77
2024/04/05 19:15:27;;;;;;;;;;;18.00;1.00;;;;;;5052136;28;19963;-75
2024/04/05 19:17:56;;;;;;;;;;;17.90;1.00;;;;;;5042917;28;20013;-77
2024/04/05 19:20:48;;;;;;;;;;;17.80;1.00;;;;;;5046386;28;19909;-77
2024/04/05 19:26:20;;;;;;;;;;;17.80;1.00;;;;;;5053773;28;20446;-76
2024/04/05 19:29:01;;;;;;;;;;;17.70;1.00;;;;;;5059839;28;19974;-78
2024/04/05 19:31:27;;;;;;;;;;;17.80;1.00;;;;;;5073411;28;19916;-75
2024/04/05 19:33:53;;;;;;;;;;;17.70;1.00;;;;;;5046232;28;19922;-75
2024/04/05 19:39:23;;;;;;;;;;;17.70;1.00;;;;;;5072608;28;20421;-76
2024/04/05 19:45:18;;;;;;;;;;;17.80;1.00;;;;;;5046051;28;19915;-77
2024/04/05 19:53:49;;;;;;;;;;;17.80;1.00;;;;;;5052603;28;19920;-78
2024/04/05 19:56:30;;;;;;;;;;;17.80;1.00;;;;;;5045107;28;19912;-75
2024/04/05 19:59:12;;;;;;;;;;;17.80;1.00;;;;;;5055033;28;20271;-75
2024/04/05 20:01:38;;;;;;;;;;;17.70;1.00;;;;;;5051989;28;19909;-75
2024/04/05 20:07:42;;;;;;;;;;;17.70;1.00;;;;;;5048176;28;20004;-77
2024/04/05 20:10:08;;;;;;;;;;;17.60;1.00;;;;;;5048448;28;20000;-75
2024/04/05 20:12:44;;;;;;;;;;;17.60;1.00;;;;;;5047134;28;19916;-77
2024/04/05 20:15:10;;;;;;;;;;;17.60;1.00;;;;;;5048739;28;19927;-76
2024/04/05 20:17:42;;;;;;;;;;;17.60;1.00;;;;;;5059019;28;19917;-76
2024/04/05 20:23:11;;;;;;;;;;;17.60;1.00;;;;;;5040042;28;20011;-77
2024/04/05 20:34:24;;;;;;;;;;;17.50;1.00;;;;;;5044505;28;19916;-77
2024/04/05 20:36:50;;;;;;;;;;;17.60;1.00;;;;;;5054770;28;20006;-76
2024/04/05 20:39:15;;;;;;;;;;;17.50;1.00;;;;;;5054055;28;19913;-75
2024/04/05 20:41:42;;;;;;;;;;;17.50;1.00;;;;;;5053663;28;19912;-75
2024/04/05 20:44:08;;;;;;;;;;;17.50;1.00;;;;;;5053689;28;19920;-76
2024/04/05 20:46:54;;;;;;;;;;;17.50;1.00;;;;;;5054407;28;19909;-76
2024/04/05 20:49:30;;;;;;;;;;;17.50;1.00;;;;;;5040684;28;19912;-75
2024/04/05 20:52:07;;;;;;;;;;;17.50;1.00;;;;;;5054432;28;19939;-75
2024/04/05 20:55:00;;;;;;;;;;;17.50;1.00;;;;;;5054309;28;19993;-76
2024/04/05 20:57:30;;;;;;;;;;;17.40;1.00;;;;;;5060317;28;19952;-75
2024/04/05 21:02:59;;;;;;;;;;;17.40;1.00;;;;;;5047235;28;20578;-77